sensor_id;sensor_type;location;lat;lon;timestamp;pressure;altitude;pressure_sealevel;temperature;humidity
66524;BME280;53350;52.210;5.160;2023-02-03T00:00:58;102471.84;;;11.53;72.88
66524;BME280;53350;52.210;5.160;2023-02-03T00:03:25;102474.44;;;11.53;72.79
66524;BME280;53350;52.210;5.160;2023-02-03T00:05:52;102462.34;;;11.49;73.18
66524;BME280;53350;52.210;5.160;2023-02-03T00:08:20;102469.22;;;11.48;73.05
66524;BME280;53350;52.210;5.160;2023-02-03T00:10:48;102479.56;;;11.50;72.73
66524;BME280;53350;52.210;5.160;2023-02-03T00:13:15;102484.72;;;11.48;72.56
66524;BME280;53350;52.210;5.160;2023-02-03T00:15:43;102488.97;;;11.46;72.84
66524;BME280;53350;52.210;5.160;2023-02-03T00:18:09;102484.72;;;11.48;72.50
66524;BME280;53350;52.210;5.160;2023-02-03T00:20:35;102497.53;;;11.44;72.87
66524;BME280;53350;52.210;5.160;2023-02-03T00:23:03;102488.94;;;11.45;72.70
66524;BME280;53350;52.210;5.160;2023-02-03T00:25:30;102499.28;;;11.45;72.58
66524;BME280;53350;52.210;5.160;2023-02-03T00:27:56;102487.25;;;11.47;72.39
66524;BME280;53350;52.210;5.160;2023-02-03T00:30:23;102484.72;;;11.50;72.21
66524;BME280;53350;52.210;5.160;2023-02-03T00:32:51;102475.22;;;11.46;72.38
66524;BME280;53350;52.210;5.160;2023-02-03T00:35:17;102488.97;;;11.46;72.40
66524;BME280;53350;52.210;5.160;2023-02-03T00:37:49;102474.41;;;11.50;72.00
66524;BME280;53350;52.210;5.160;2023-02-03T00:40:16;102490.75;;;11.52;71.86
66524;BME280;53350;52.210;5.160;2023-02-03T00:42:43;102495.09;;;11.55;71.88
66524;BME280;53350;52.210;5.160;2023-02-03T00:45:09;102481.34;;;11.56;71.60
66524;BME280;53350;52.210;5.160;2023-02-03T00:47:36;102497.69;;;11.56;71.70
66524;BME280;53350;52.210;5.160;2023-02-03T00:50:04;102483.03;;;11.55;71.88
66524;BME280;53350;52.210;5.160;2023-02-03T00:52:31;102470.13;;;11.54;71.81
66524;BME280;53350;52.210;5.160;2023-02-03T00:54:57;102475.25;;;11.52;71.75
66524;BME280;53350;52.210;5.160;2023-02-03T00:57:24;102471.00;;;11.56;71.62
66524;BME280;53350;52.210;5.160;2023-02-03T00:59:50;102485.63;;;11.57;71.66
66524;BME280;53350;52.210;5.160;2023-02-03T01:02:17;102483.94;;;11.57;71.65
66524;BME280;53350;52.210;5.160;2023-02-03T01:04:43;102472.72;;;11.57;71.66
66524;BME280;53350;52.210;5.160;2023-02-03T01:07:11;102469.31;;;11.58;71.43
66524;BME280;53350;52.210;5.160;2023-02-03T01:09:37;102465.88;;;11.59;71.29
66524;BME280;53350;52.210;5.160;2023-02-03T01:12:04;102470.16;;;11.57;71.15
66524;BME280;53350;52.210;5.160;2023-02-03T01:14:31;102473.63;;;11.59;71.12
66524;BME280;53350;52.210;5.160;2023-02-03T01:16:57;102464.97;;;11.55;71.38
66524;BME280;53350;52.210;5.160;2023-02-03T01:19:24;102473.59;;;11.56;71.01
66524;BME280;53350;52.210;5.160;2023-02-03T01:21:50;102464.94;;;11.52;71.12
66524;BME280;53350;52.210;5.160;2023-02-03T01:24:18;102464.09;;;11.52;71.32
66524;BME280;53350;52.210;5.160;2023-02-03T01:26:44;102451.19;;;11.52;71.02
66524;BME280;53350;52.210;5.160;2023-02-03T01:29:11;102437.38;;;11.48;71.33
66524;BME280;53350;52.210;5.160;2023-02-03T01:31:39;102432.22;;;11.49;71.05
66524;BME280;53350;52.210;5.160;2023-02-03T01:34:07;102434.75;;;11.45;71.22
66524;BME280;53350;52.210;5.160;2023-02-03T01:36:36;102432.22;;;11.49;70.92
66524;BME280;53350;52.210;5.160;2023-02-03T01:39:03;102435.69;;;11.48;70.85
66524;BME280;53350;52.210;5.160;2023-02-03T01:41:33;102425.38;;;11.50;70.56
66524;BME280;53350;52.210;5.160;2023-02-03T01:44:00;102435.63;;;11.47;70.75
66524;BME280;53350;52.210;5.160;2023-02-03T01:46:29;102440.84;;;11.48;70.69
66524;BME280;53350;52.210;5.160;2023-02-03T01:49:03;102460.59;;;11.49;70.38
66524;BME280;53350;52.210;5.160;2023-02-03T01:51:31;102460.59;;;11.49;70.34
66524;BME280;53350;52.210;5.160;2023-02-03T01:53:58;102435.69;;;11.50;70.37
66524;BME280;53350;52.210;5.160;2023-02-03T01:56:29;102430.53;;;11.52;70.08
66524;BME280;53350;52.210;5.160;2023-02-03T01:58:58;102417.63;;;11.48;70.26
66524;BME280;53350;52.210;5.160;2023-02-03T02:01:25;102418.47;;;11.49;70.02
66524;BME280;53350;52.210;5.160;2023-02-03T02:03:55;102403.84;;;11.49;69.92
66524;BME280;53350;52.210;5.160;2023-02-03T02:06:23;102404.72;;;11.50;69.95
66524;BME280;53350;52.210;5.160;2023-02-03T02:08:51;102401.22;;;11.46;69.80
66524;BME280;53350;52.210;5.160;2023-02-03T02:11:19;102404.72;;;11.48;69.72
66524;BME280;53350;52.210;5.160;2023-02-03T02:13:46;102394.44;;;11.53;69.27
66524;BME280;53350;52.210;5.160;2023-02-03T02:16:18;102397.03;;;11.56;69.18
66524;BME280;53350;52.210;5.160;2023-02-03T02:19:00;102400.44;;;11.54;68.86
66524;BME280;53350;52.210;5.160;2023-02-03T02:21:46;102416.78;;;11.54;68.93
66524;BME280;53350;52.210;5.160;2023-02-03T02:24:31;102410.75;;;11.52;68.93
66524;BME280;53350;52.210;5.160;2023-02-03T02:27:08;102409.09;;;11.57;68.85
66524;BME280;53350;52.210;5.160;2023-02-03T02:32:57;102399.63;;;11.59;68.63
66524;BME280;53350;52.210;5.160;2023-02-03T02:35:31;102396.19;;;11.59;68.67
66524;BME280;53350;52.210;5.160;2023-02-03T02:38:04;102401.38;;;11.60;68.80
66524;BME280;53350;52.210;5.160;2023-02-03T02:40:36;102415.97;;;11.58;69.12
66524;BME280;53350;52.210;5.160;2023-02-03T02:43:10;102415.97;;;11.61;68.87
66524;BME280;53350;52.210;5.160;2023-02-03T02:45:44;102403.97;;;11.63;68.78
66524;BME280;53350;52.210;5.160;2023-02-03T02:48:17;102384.16;;;11.61;68.94
66524;BME280;53350;52.210;5.160;2023-02-03T02:50:48;102385.91;;;11.62;68.90
66524;BME280;53350;52.210;5.160;2023-02-03T02:53:17;102396.22;;;11.60;69.33
66524;BME280;53350;52.210;5.160;2023-02-03T02:55:45;102404.78;;;11.59;69.31
66524;BME280;53350;52.210;5.160;2023-02-03T02:58:14;102391.91;;;11.61;69.34
66524;BME280;53350;52.210;5.160;2023-02-03T03:00:43;102396.22;;;11.60;69.12
66524;BME280;53350;52.210;5.160;2023-02-03T03:03:15;102374.75;;;11.66;69.21
66524;BME280;53350;52.210;5.160;2023-02-03T03:05:54;102399.69;;;11.65;69.01
66524;BME280;53350;52.210;5.160;2023-02-03T03:08:26;102403.13;;;11.63;69.13
66524;BME280;53350;52.210;5.160;2023-02-03T03:10:56;102391.06;;;11.63;69.25
66524;BME280;53350;52.210;5.160;2023-02-03T03:13:26;102399.63;;;11.59;69.52
66524;BME280;53350;52.210;5.160;2023-02-03T03:15:56;102405.66;;;11.60;69.65
66524;BME280;53350;52.210;5.160;2023-02-03T03:18:29;102399.63;;;11.61;69.72
66524;BME280;53350;52.210;5.160;2023-02-03T03:21:00;102390.16;;;11.58;69.55
66524;BME280;53350;52.210;5.160;2023-02-03T03:23:32;102399.66;;;11.62;69.82
66524;BME280;53350;52.210;5.160;2023-02-03T03:26:08;102395.38;;;11.64;69.66
66524;BME280;53350;52.210;5.160;2023-02-03T03:28:41;102403.16;;;11.69;69.23
66524;BME280;53350;52.210;5.160;2023-02-03T03:31:10;102403.16;;;11.69;69.38
66524;BME280;53350;52.210;5.160;2023-02-03T03:33:38;102403.13;;;11.66;69.71
66524;BME280;53350;52.210;5.160;2023-02-03T03:36:13;102403.13;;;11.66;69.76
66524;BME280;53350;52.210;5.160;2023-02-03T03:38:46;102402.25;;;11.65;69.44
66524;BME280;53350;52.210;5.160;2023-02-03T03:41:19;102399.69;;;11.65;69.35
66524;BME280;53350;52.210;5.160;2023-02-03T03:43:52;102404.84;;;11.65;69.60
66524;BME280;53350;52.210;5.160;2023-02-03T03:46:25;102398.81;;;11.63;69.41
66524;BME280;53350;52.210;5.160;2023-02-03T03:48:56;102414.28;;;11.60;69.67
66524;BME280;53350;52.210;5.160;2023-02-03T03:51:27;102415.09;;;11.56;69.88
66524;BME280;53350;52.210;5.160;2023-02-03T03:53:58;102415.94;;;11.55;70.02
66524;BME280;53350;52.210;5.160;2023-02-03T03:56:29;102431.44;;;11.60;69.90
66524;BME280;53350;52.210;5.160;2023-02-03T03:58:58;102411.72;;;11.63;69.58
66524;BME280;53350;52.210;5.160;2023-02-03T04:01:28;102412.56;;;11.64;69.68
66524;BME280;53350;52.210;5.160;2023-02-03T04:03:59;102415.16;;;11.65;69.51
66524;BME280;53350;52.210;5.160;2023-02-03T04:06:27;102427.25;;;11.70;69.53
66524;BME280;53350;52.210;5.160;2023-02-03T04:08:53;102434.97;;;11.66;69.47
66524;BME280;53350;52.210;5.160;2023-02-03T04:11:20;102421.22;;;11.66;69.55
66524;BME280;53350;52.210;5.160;2023-02-03T04:14:04;102422.06;;;11.66;69.58
66524;BME280;53350;52.210;5.160;2023-02-03T04:16:30;102428.97;;;11.69;69.21
66524;BME280;53350;52.210;5.160;2023-02-03T04:18:58;102422.06;;;11.66;69.37
66524;BME280;53350;52.210;5.160;2023-02-03T04:21:25;102422.09;;;11.70;69.37
66524;BME280;53350;52.210;5.160;2023-02-03T04:23:51;102405.75;;;11.69;69.44
66524;BME280;53350;52.210;5.160;2023-02-03T04:26:18;102427.25;;;11.70;69.47
66524;BME280;53350;52.210;5.160;2023-02-03T04:28:44;102411.75;;;11.68;69.43
66524;BME280;53350;52.210;5.160;2023-02-03T04:31:10;102413.47;;;11.69;69.51
66524;BME280;53350;52.210;5.160;2023-02-03T04:33:37;102423.78;;;11.64;69.86
66524;BME280;53350;52.210;5.160;2023-02-03T04:36:05;102424.66;;;11.68;69.58
66524;BME280;53350;52.210;5.160;2023-02-03T04:38:32;102428.94;;;11.66;69.68
66524;BME280;53350;52.210;5.160;2023-02-03T04:40:58;102420.34;;;11.69;69.64
66524;BME280;53350;52.210;5.160;2023-02-03T04:43:25;102422.06;;;11.68;69.72
66524;BME280;53350;52.210;5.160;2023-02-03T04:45:51;102421.22;;;11.68;69.73
66524;BME280;53350;52.210;5.160;2023-02-03T04:48:18;102410.00;;;11.67;69.80
66524;BME280;53350;52.210;5.160;2023-02-03T04:50:44;102417.75;;;11.69;69.80
66524;BME280;53350;52.210;5.160;2023-02-03T04:53:12;102406.56;;;11.65;70.00
66524;BME280;53350;52.210;5.160;2023-02-03T04:55:38;102414.31;;;11.68;69.92
66524;BME280;53350;52.210;5.160;2023-02-03T04:58:05;102401.41;;;11.68;69.97
66524;BME280;53350;52.210;5.160;2023-02-03T05:00:31;102397.97;;;11.63;70.06
66524;BME280;53350;52.210;5.160;2023-02-03T05:02:57;102404.84;;;11.65;69.97
66524;BME280;53350;52.210;5.160;2023-02-03T05:05:24;102388.50;;;11.66;69.95
66524;BME280;53350;52.210;5.160;2023-02-03T05:07:50;102397.97;;;11.64;69.96
66524;BME280;53350;52.210;5.160;2023-02-03T05:10:18;102402.22;;;11.61;70.12
66524;BME280;53350;52.210;5.160;2023-02-03T05:12:44;102401.38;;;11.62;70.04
66524;BME280;53350;52.210;5.160;2023-02-03T05:15:11;102412.53;;;11.61;69.92
66524;BME280;53350;52.210;5.160;2023-02-03T05:17:37;102417.72;;;11.61;70.03
66524;BME280;53350;52.210;5.160;2023-02-03T05:20:06;102422.88;;;11.62;69.79
66524;BME280;53350;52.210;5.160;2023-02-03T05:22:32;102412.50;;;11.55;70.06
66524;BME280;53350;52.210;5.160;2023-02-03T05:24:59;102409.06;;;11.56;70.25
66524;BME280;53350;52.210;5.160;2023-02-03T05:27:27;102413.38;;;11.57;70.49
66524;BME280;53350;52.210;5.160;2023-02-03T05:29:53;102417.69;;;11.58;70.28
66524;BME280;53350;52.210;5.160;2023-02-03T05:32:20;102403.03;;;11.57;70.28
66524;BME280;53350;52.210;5.160;2023-02-03T05:34:47;102392.72;;;11.55;70.31
66524;BME280;53350;52.210;5.160;2023-02-03T05:37:13;102403.91;;;11.56;70.24
66524;BME280;53350;52.210;5.160;2023-02-03T05:39:39;102409.06;;;11.56;70.35
66524;BME280;53350;52.210;5.160;2023-02-03T05:42:06;102411.63;;;11.54;70.49
66524;BME280;53350;52.210;5.160;2023-02-03T05:44:33;102415.09;;;11.55;70.35
66524;BME280;53350;52.210;5.160;2023-02-03T05:46:59;102405.59;;;11.54;70.24
66524;BME280;53350;52.210;5.160;2023-02-03T05:49:26;102406.41;;;11.49;70.51
66524;BME280;53350;52.210;5.160;2023-02-03T05:51:53;102414.16;;;11.49;70.45
66524;BME280;53350;52.210;5.160;2023-02-03T05:54:20;102403.00;;;11.52;70.28
66524;BME280;53350;52.210;5.160;2023-02-03T05:56:47;102407.28;;;11.48;70.48
66524;BME280;53350;52.210;5.160;2023-02-03T05:59:14;102412.41;;;11.47;70.71
66524;BME280;53350;52.210;5.160;2023-02-03T06:01:41;102412.47;;;11.50;70.48
66524;BME280;53350;52.210;5.160;2023-02-03T06:04:08;102415.06;;;11.52;70.61
66524;BME280;53350;52.210;5.160;2023-02-03T06:06:34;102422.78;;;11.48;70.75
66524;BME280;53350;52.210;5.160;2023-02-03T06:09:03;102422.78;;;11.48;70.82
66524;BME280;53350;52.210;5.160;2023-02-03T06:11:30;102425.38;;;11.53;70.64
66524;BME280;53350;52.210;5.160;2023-02-03T06:13:58;102413.31;;;11.49;70.48
66524;BME280;53350;52.210;5.160;2023-02-03T06:16:25;102415.94;;;11.57;70.72
66524;BME280;53350;52.210;5.160;2023-02-03T06:18:54;102426.25;;;11.55;70.70
66524;BME280;53350;52.210;5.160;2023-02-03T06:21:22;102443.47;;;11.56;70.70
66524;BME280;53350;52.210;5.160;2023-02-03T06:23:49;102436.56;;;11.54;70.73
66524;BME280;53350;52.210;5.160;2023-02-03T06:26:15;102443.38;;;11.47;71.06
66524;BME280;53350;52.210;5.160;2023-02-03T06:28:41;102445.13;;;11.49;70.81
66524;BME280;53350;52.210;5.160;2023-02-03T06:31:08;102440.84;;;11.48;71.08
66524;BME280;53350;52.210;5.160;2023-02-03T06:33:34;102441.63;;;11.43;70.86
66524;BME280;53350;52.210;5.160;2023-02-03T06:36:02;102421.03;;;11.47;70.92
66524;BME280;53350;52.210;5.160;2023-02-03T06:38:29;102428.75;;;11.46;71.01
66524;BME280;53350;52.210;5.160;2023-02-03T06:40:55;102435.63;;;11.47;70.97
66524;BME280;53350;52.210;5.160;2023-02-03T06:43:22;102433.91;;;11.44;71.10
66524;BME280;53350;52.210;5.160;2023-02-03T06:45:48;102445.09;;;11.46;71.08
66524;BME280;53350;52.210;5.160;2023-02-03T06:48:14;102448.53;;;11.45;71.24
66524;BME280;53350;52.210;5.160;2023-02-03T06:50:42;102447.69;;;11.46;71.05
66524;BME280;53350;52.210;5.160;2023-02-03T06:53:09;102449.41;;;11.44;71.17
66524;BME280;53350;52.210;5.160;2023-02-03T06:55:36;102455.41;;;11.45;71.12
66524;BME280;53350;52.210;5.160;2023-02-03T06:58:02;102465.72;;;11.43;71.26
66524;BME280;53350;52.210;5.160;2023-02-03T07:00:28;102464.88;;;11.46;71.21
66524;BME280;53350;52.210;5.160;2023-02-03T07:02:56;102466.63;;;11.48;71.14
66524;BME280;53350;52.210;5.160;2023-02-03T07:05:24;102481.25;;;11.49;70.92
66524;BME280;53350;52.210;5.160;2023-02-03T07:07:52;102477.78;;;11.44;71.10
66524;BME280;53350;52.210;5.160;2023-02-03T07:10:20;102471.75;;;11.45;71.40
66524;BME280;53350;52.210;5.160;2023-02-03T07:12:46;102471.72;;;11.42;71.54
66524;BME280;53350;52.210;5.160;2023-02-03T07:15:15;102482.94;;;11.44;71.69
66524;BME280;53350;52.210;5.160;2023-02-03T07:17:41;102486.38;;;11.46;71.72
66524;BME280;53350;52.210;5.160;2023-02-03T07:20:08;102478.63;;;11.45;71.83
66524;BME280;53350;52.210;5.160;2023-02-03T07:22:35;102480.38;;;11.47;71.66
66524;BME280;53350;52.210;5.160;2023-02-03T07:25:03;102472.63;;;11.46;71.97
66524;BME280;53350;52.210;5.160;2023-02-03T07:27:31;102471.72;;;11.44;71.88
66524;BME280;53350;52.210;5.160;2023-02-03T07:29:57;102477.75;;;11.43;72.09
66524;BME280;53350;52.210;5.160;2023-02-03T07:32:23;102476.88;;;11.42;72.28
66524;BME280;53350;52.210;5.160;2023-02-03T07:34:50;102482.03;;;11.41;72.46
66524;BME280;53350;52.210;5.160;2023-02-03T07:37:16;102459.69;;;11.43;72.25
66524;BME280;53350;52.210;5.160;2023-02-03T07:39:43;102466.50;;;11.38;72.35
66524;BME280;53350;52.210;5.160;2023-02-03T07:42:10;102470.78;;;11.33;72.77
66524;BME280;53350;52.210;5.160;2023-02-03T07:44:38;102474.19;;;11.31;72.99
66524;BME280;53350;52.210;5.160;2023-02-03T07:47:04;102486.19;;;11.29;72.89
66524;BME280;53350;52.210;5.160;2023-02-03T07:49:30;102481.03;;;11.29;72.95
66524;BME280;53350;52.210;5.160;2023-02-03T07:51:57;102489.66;;;11.30;72.94
66524;BME280;53350;52.210;5.160;2023-02-03T07:54:23;102500.81;;;11.29;72.89
66524;BME280;53350;52.210;5.160;2023-02-03T07:56:50;102485.31;;;11.27;73.06
66524;BME280;53350;52.210;5.160;2023-02-03T07:59:16;102491.31;;;11.26;73.28
66524;BME280;53350;52.210;5.160;2023-02-03T08:01:44;102484.47;;;11.27;73.15
66524;BME280;53350;52.210;5.160;2023-02-03T08:04:10;102498.22;;;11.26;73.47
66524;BME280;53350;52.210;5.160;2023-02-03T08:06:40;102509.44;;;11.31;73.46
66524;BME280;53350;52.210;5.160;2023-02-03T08:09:07;102507.75;;;11.33;72.97
66524;BME280;53350;52.210;5.160;2023-02-03T08:11:33;102516.34;;;11.34;73.13
66524;BME280;53350;52.210;5.160;2023-02-03T08:13:59;102525.81;;;11.33;73.28
66524;BME280;53350;52.210;5.160;2023-02-03T08:16:26;102529.25;;;11.34;73.17
66524;BME280;53350;52.210;5.160;2023-02-03T08:18:54;102524.94;;;11.33;73.45
66524;BME280;53350;52.210;5.160;2023-02-03T08:21:20;102534.38;;;11.32;73.42
66524;BME280;53350;52.210;5.160;2023-02-03T08:23:46;102530.13;;;11.33;73.33
66524;BME280;53350;52.210;5.160;2023-02-03T08:26:13;102543.88;;;11.33;73.55
66524;BME280;53350;52.210;5.160;2023-02-03T08:28:40;102544.72;;;11.34;73.55
66524;BME280;53350;52.210;5.160;2023-02-03T08:31:09;102546.47;;;11.35;73.22
66524;BME280;53350;52.210;5.160;2023-02-03T08:33:36;102543.03;;;11.34;73.52
66524;BME280;53350;52.210;5.160;2023-02-03T08:36:04;102546.53;;;11.41;73.45
66524;BME280;53350;52.210;5.160;2023-02-03T08:38:31;102545.66;;;11.39;73.50
66524;BME280;53350;52.210;5.160;2023-02-03T08:40:57;102548.22;;;11.36;73.42
66524;BME280;53350;52.210;5.160;2023-02-03T08:43:24;102556.78;;;11.35;73.62
66524;BME280;53350;52.210;5.160;2023-02-03T08:45:50;102549.91;;;11.35;73.85
66524;BME280;53350;52.210;5.160;2023-02-03T08:48:17;102543.94;;;11.39;73.39
66524;BME280;53350;52.210;5.160;2023-02-03T08:50:43;102558.53;;;11.36;73.53
66524;BME280;53350;52.210;5.160;2023-02-03T08:53:17;102545.63;;;11.36;73.79
66524;BME280;53350;52.210;5.160;2023-02-03T08:55:43;102553.38;;;11.37;73.77
66524;BME280;53350;52.210;5.160;2023-02-03T08:58:10;102571.44;;;11.37;73.80
66524;BME280;53350;52.210;5.160;2023-02-03T09:00:36;102565.47;;;11.41;73.78
66524;BME280;53350;52.210;5.160;2023-02-03T09:03:03;102562.94;;;11.46;73.78
66524;BME280;53350;52.210;5.160;2023-02-03T09:05:29;102562.16;;;11.52;73.64
66524;BME280;53350;52.210;5.160;2023-02-03T09:07:56;102572.47;;;11.52;73.44
66524;BME280;53350;52.210;5.160;2023-02-03T09:10:23;102579.34;;;11.54;73.52
66524;BME280;53350;52.210;5.160;2023-02-03T09:12:50;102581.13;;;11.58;73.32
66524;BME280;53350;52.210;5.160;2023-02-03T09:15:17;102569.97;;;11.59;73.30
66524;BME280;53350;52.210;5.160;2023-02-03T09:17:43;102579.47;;;11.60;73.26
66524;BME280;53350;52.210;5.160;2023-02-03T09:20:10;102583.81;;;11.66;72.87
66524;BME280;53350;52.210;5.160;2023-02-03T09:22:40;102592.44;;;11.68;73.05
66524;BME280;53350;52.210;5.160;2023-02-03T09:25:07;102573.56;;;11.72;72.61
66524;BME280;53350;52.210;5.160;2023-02-03T09:27:34;102574.38;;;11.68;72.86
66524;BME280;53350;52.210;5.160;2023-02-03T09:30:01;102591.56;;;11.64;73.16
66524;BME280;53350;52.210;5.160;2023-02-03T09:32:27;102579.53;;;11.66;72.81
66524;BME280;53350;52.210;5.160;2023-02-03T09:34:54;102578.63;;;11.63;73.20
66524;BME280;53350;52.210;5.160;2023-02-03T09:37:20;102576.06;;;11.66;73.04
66524;BME280;53350;52.210;5.160;2023-02-03T09:39:46;102590.69;;;11.65;73.12
66524;BME280;53350;52.210;5.160;2023-02-03T09:42:25;102593.34;;;11.72;73.02
66524;BME280;53350;52.210;5.160;2023-02-03T09:45:03;102596.78;;;11.72;72.85
66524;BME280;53350;52.210;5.160;2023-02-03T09:47:34;102606.28;;;11.73;72.76
66524;BME280;53350;52.210;5.160;2023-02-03T09:50:05;102606.28;;;11.75;72.79
66524;BME280;53350;52.210;5.160;2023-02-03T09:52:34;102599.41;;;11.75;72.55
66524;BME280;53350;52.210;5.160;2023-02-03T09:55:06;102587.34;;;11.74;72.30
66524;BME280;53350;52.210;5.160;2023-02-03T09:57:41;102611.50;;;11.78;72.39
66524;BME280;53350;52.210;5.160;2023-02-03T10:00:19;102608.09;;;11.80;72.47
66524;BME280;53350;52.210;5.160;2023-02-03T10:02:54;102595.19;;;11.83;72.28
66524;BME280;53350;52.210;5.160;2023-02-03T10:05:24;102606.38;;;11.84;72.35
66524;BME280;53350;52.210;5.160;2023-02-03T10:08:01;102613.19;;;11.77;72.25
66524;BME280;53350;52.210;5.160;2023-02-03T10:10:36;102611.44;;;11.72;72.54
66524;BME280;53350;52.210;5.160;2023-02-03T10:13:21;102615.75;;;11.77;72.65
66524;BME280;53350;52.210;5.160;2023-02-03T10:16:07;102614.13;;;11.82;72.14
66524;BME280;53350;52.210;5.160;2023-02-03T10:18:44;102610.72;;;11.85;72.09
66524;BME280;53350;52.210;5.160;2023-02-03T10:21:15;102624.47;;;11.86;72.40
66524;BME280;53350;52.210;5.160;2023-02-03T10:23:44;102634.00;;;11.91;72.10
66524;BME280;53350;52.210;5.160;2023-02-03T10:26:16;102622.81;;;11.89;72.05
66524;BME280;53350;52.210;5.160;2023-02-03T10:28:49;102620.22;;;11.88;72.20
66524;BME280;53350;52.210;5.160;2023-02-03T10:31:20;102630.53;;;11.86;72.11
66524;BME280;53350;52.210;5.160;2023-02-03T10:33:52;102635.72;;;11.91;71.81
66524;BME280;53350;52.210;5.160;2023-02-03T10:36:21;102639.97;;;11.87;72.02
66524;BME280;53350;52.210;5.160;2023-02-03T10:38:57;102640.66;;;11.69;72.49
66524;BME280;53350;52.210;5.160;2023-02-03T10:41:27;102644.28;;;11.85;72.36
66524;BME280;53350;52.210;5.160;2023-02-03T10:43:55;102648.63;;;11.89;71.97
66524;BME280;53350;52.210;5.160;2023-02-03T10:46:27;102655.47;;;11.87;72.15
66524;BME280;53350;52.210;5.160;2023-02-03T10:48:54;102652.91;;;11.90;72.32
66524;BME280;53350;52.210;5.160;2023-02-03T10:51:23;102640.97;;;11.95;72.36
66524;BME280;53350;52.210;5.160;2023-02-03T10:53:50;102639.34;;;12.02;72.07
66524;BME280;53350;52.210;5.160;2023-02-03T10:56:20;102647.94;;;12.01;72.09
66524;BME280;53350;52.210;5.160;2023-02-03T10:58:49;102642.72;;;11.98;72.14
66524;BME280;53350;52.210;5.160;2023-02-03T11:01:16;102654.78;;;11.99;72.18
66524;BME280;53350;52.210;5.160;2023-02-03T11:03:54;102637.53;;;11.95;72.02
66524;BME280;53350;52.210;5.160;2023-02-03T11:06:22;102661.69;;;12.02;71.89
66524;BME280;53350;52.210;5.160;2023-02-03T11:08:49;102657.34;;;11.99;72.19
66524;BME280;53350;52.210;5.160;2023-02-03T11:11:20;102666.88;;;12.03;72.05
66524;BME280;53350;52.210;5.160;2023-02-03T11:13:51;102661.75;;;12.06;71.95
66524;BME280;53350;52.210;5.160;2023-02-03T11:16:18;102665.22;;;12.08;71.76
66524;BME280;53350;52.210;5.160;2023-02-03T11:18:56;102654.91;;;12.10;71.96
66524;BME280;53350;52.210;5.160;2023-02-03T11:21:24;102654.06;;;12.12;71.82
66524;BME280;53350;52.210;5.160;2023-02-03T11:23:54;102662.66;;;12.10;71.83
66524;BME280;53350;52.210;5.160;2023-02-03T11:26:25;102665.25;;;12.10;71.93
66524;BME280;53350;52.210;5.160;2023-02-03T11:28:55;102670.41;;;12.11;71.92
66524;BME280;53350;52.210;5.160;2023-02-03T11:31:24;102670.41;;;12.11;72.03
66524;BME280;53350;52.210;5.160;2023-02-03T11:33:55;102664.44;;;12.17;71.83
66524;BME280;53350;52.210;5.160;2023-02-03T11:36:25;102673.09;;;12.21;71.75
66524;BME280;53350;52.210;5.160;2023-02-03T11:39:07;102663.56;;;12.16;72.00
66524;BME280;53350;52.210;5.160;2023-02-03T11:41:36;102673.97;;;12.21;71.48
66524;BME280;53350;52.210;5.160;2023-02-03T11:44:09;102662.69;;;12.14;71.94
66524;BME280;53350;52.210;5.160;2023-02-03T11:46:37;102660.94;;;12.13;72.05
66524;BME280;53350;52.210;5.160;2023-02-03T11:49:11;102667.88;;;12.16;71.90
66524;BME280;53350;52.210;5.160;2023-02-03T11:51:49;102641.19;;;12.14;71.91
66524;BME280;53350;52.210;5.160;2023-02-03T11:54:26;102655.75;;;12.09;72.11
66524;BME280;53350;52.210;5.160;2023-02-03T11:57:07;102640.22;;;12.07;71.94
66524;BME280;53350;52.210;5.160;2023-02-03T11:59:50;102647.97;;;12.04;72.53
66524;BME280;53350;52.210;5.160;2023-02-03T12:05:44;102657.47;;;12.08;72.37
66524;BME280;53350;52.210;5.160;2023-02-03T12:08:25;102664.31;;;12.06;72.34
66524;BME280;53350;52.210;5.160;2023-02-03T12:11:02;102653.13;;;12.06;72.52
66524;BME280;53350;52.210;5.160;2023-02-03T12:13:48;102678.03;;;12.00;73.15
66524;BME280;53350;52.210;5.160;2023-02-03T12:16:27;102679.72;;;11.97;73.49
66524;BME280;53350;52.210;5.160;2023-02-03T12:19:05;102688.34;;;11.99;73.33
66524;BME280;53350;52.210;5.160;2023-02-03T12:21:42;102695.22;;;11.95;74.08
66524;BME280;53350;52.210;5.160;2023-02-03T12:24:18;102691.66;;;11.90;74.65
66524;BME280;53350;52.210;5.160;2023-02-03T12:26:53;102689.75;;;11.74;75.87
66524;BME280;53350;52.210;5.160;2023-02-03T12:29:24;102682.94;;;11.79;76.03
66524;BME280;53350;52.210;5.160;2023-02-03T12:31:59;102683.78;;;11.78;76.17
66524;BME280;53350;52.210;5.160;2023-02-03T12:34:31;102703.53;;;11.77;76.48
66524;BME280;53350;52.210;5.160;2023-02-03T12:37:04;102705.25;;;11.75;76.57
66524;BME280;53350;52.210;5.160;2023-02-03T12:39:35;102701.78;;;11.72;76.92
66524;BME280;53350;52.210;5.160;2023-02-03T12:42:06;102703.47;;;11.70;76.51
66524;BME280;53350;52.210;5.160;2023-02-03T12:44:41;102721.50;;;11.68;76.63
66524;BME280;53350;52.210;5.160;2023-02-03T12:47:13;102732.53;;;11.56;76.50
66524;BME280;53350;52.210;5.160;2023-02-03T12:49:46;102723.22;;;11.66;76.61
66524;BME280;53350;52.210;5.160;2023-02-03T12:52:20;102727.53;;;11.70;76.66
66524;BME280;53350;52.210;5.160;2023-02-03T12:54:55;102731.94;;;11.77;76.00
66524;BME280;53350;52.210;5.160;2023-02-03T12:57:26;102726.78;;;11.77;76.00
66524;BME280;53350;52.210;5.160;2023-02-03T13:00:08;102730.28;;;11.81;75.86
66524;BME280;53350;52.210;5.160;2023-02-03T13:02:43;102743.19;;;11.81;76.10
66524;BME280;53350;52.210;5.160;2023-02-03T13:05:19;102747.50;;;11.80;75.88
66524;BME280;53350;52.210;5.160;2023-02-03T13:07:53;102744.81;;;11.74;75.67